Time;durP1;ratioP1;P1;durP2;ratioP2;P2;SDS_P1;SDS_P2;PMS_P1;PMS_P2;Temp;Humidity;BMP_temperature;BMP_pressure;BME280_temperature;BME280_humidity;BME280_pressure;Samples;Min_cycle;Max_cycle;Signal;HPM_P1;HPM_P2
2021/10/27 00:00:18;;;;;;;0.75;0.75;;;;;;;;;;7332880;19;154216;-17
2021/10/27 00:02:49;;;;;;;0.88;0.88;;;;;;;;;;7331622;19;153623;-17
2021/10/27 00:05:24;;;;;;;0.98;0.88;;;;;;;;;;7332143;19;161831;-15
2021/10/27 00:07:55;;;;;;;0.90;0.90;;;;;;;;;;7331808;19;162612;-17
2021/10/27 00:10:27;;;;;;;0.70;0.70;;;;;;;;;;7332518;19;154328;-17
2021/10/27 00:12:58;;;;;;;0.90;0.90;;;;;;;;;;7332299;19;153534;-17
2021/10/27 00:15:30;;;;;;;0.80;0.80;;;;;;;;;;7329176;19;162150;-18
2021/10/27 00:18:02;;;;;;;0.77;0.77;;;;;;;;;;7331929;19;162547;-16
2021/10/27 00:20:39;;;;;;;0.65;0.65;;;;;;;;;;7332214;19;154178;-17
2021/10/27 00:23:10;;;;;;;0.68;0.68;;;;;;;;;;7332109;19;153485;-15
2021/10/27 00:25:41;;;;;;;0.82;0.82;;;;;;;;;;7331718;19;162476;-16
2021/10/27 00:28:12;;;;;;;0.75;0.75;;;;;;;;;;7331692;19;162157;-17
2021/10/27 00:30:44;;;;;;;1.25;0.80;;;;;;;;;;7331737;19;154047;-15
2021/10/27 00:33:16;;;;;;;0.82;0.82;;;;;;;;;;7331659;19;153865;-15
2021/10/27 00:35:51;;;;;;;0.73;0.73;;;;;;;;;;7332546;19;162099;-16
2021/10/27 00:38:22;;;;;;;0.70;0.70;;;;;;;;;;7328724;19;162499;-18
2021/10/27 00:40:55;;;;;;;0.77;0.77;;;;;;;;;;7330264;19;154111;-18
2021/10/27 00:43:27;;;;;;;0.77;0.77;;;;;;;;;;7327405;19;153819;-15
2021/10/27 00:45:59;;;;;;;0.75;0.75;;;;;;;;;;7327439;19;161899;-16
2021/10/27 00:48:30;;;;;;;0.70;0.70;;;;;;;;;;7329890;19;162468;-17
2021/10/27 00:51:04;;;;;;;1.42;0.90;;;;;;;;;;7334705;19;153988;-15
2021/10/27 00:53:39;;;;;;;0.82;0.73;;;;;;;;;;7331016;19;153532;-17
2021/10/27 00:56:11;;;;;;;0.60;0.60;;;;;;;;;;7328645;19;161866;-17
2021/10/27 00:58:44;;;;;;;;;;;;;;;;;;7328793;19;162536;-16
2021/10/27 01:01:16;;;;;;;0.70;0.70;;;;;;;;;;7330294;19;154515;-18
2021/10/27 01:03:48;;;;;;;0.70;0.70;;;;;;;;;;7324429;19;154017;-15
2021/10/27 01:06:22;;;;;;;1.40;0.70;;;;;;;;;;7327484;19;161941;-17
2021/10/27 01:08:55;;;;;;;1.23;0.88;;;;;;;;;;7328990;19;162412;-18
2021/10/27 01:11:27;;;;;;;0.60;0.60;;;;;;;;;;7316706;19;154013;-17
2021/10/27 01:13:59;;;;;;;0.60;0.60;;;;;;;;;;7330016;19;155791;-18
2021/10/27 01:16:30;;;;;;;0.65;0.65;;;;;;;;;;7326317;19;161981;-15
2021/10/27 01:19:01;;;;;;;0.70;0.70;;;;;;;;;;7330034;19;162442;-19
2021/10/27 01:21:40;;;;;;;0.55;0.55;;;;;;;;;;7330297;19;154170;-19
2021/10/27 01:24:12;;;;;;;0.80;0.70;;;;;;;;;;7330564;19;153552;-16
2021/10/27 01:26:43;;;;;;;0.70;0.70;;;;;;;;;;7330518;19;161776;-15
2021/10/27 01:29:15;;;;;;;0.70;0.70;;;;;;;;;;7329753;19;162329;-15
2021/10/27 01:31:46;;;;;;;0.70;0.70;;;;;;;;;;7330279;19;154146;-16
2021/10/27 01:34:17;;;;;;;0.60;0.60;;;;;;;;;;7330377;19;153524;-17
2021/10/27 01:36:52;;;;;;;0.73;0.73;;;;;;;;;;7327819;19;161810;-17
2021/10/27 01:39:24;;;;;;;0.70;0.70;;;;;;;;;;7329709;19;162358;-15
2021/10/27 01:41:55;;;;;;;0.73;0.57;;;;;;;;;;7330152;19;154245;-18
2021/10/27 01:44:27;;;;;;;0.60;0.60;;;;;;;;;;7330060;19;153579;-16
2021/10/27 01:46:58;;;;;;;0.60;0.60;;;;;;;;;;7329905;19;161776;-14
2021/10/27 01:49:29;;;;;;;0.85;0.70;;;;;;;;;;7327960;19;162488;-19
2021/10/27 01:52:03;;;;;;;3.58;0.90;;;;;;;;;;7330321;19;153927;-17
2021/10/27 01:54:35;;;;;;;0.75;0.75;;;;;;;;;;7329719;19;153517;-17
2021/10/27 01:57:07;;;;;;;0.70;0.70;;;;;;;;;;7327353;19;161790;-16
2021/10/27 01:59:38;;;;;;;0.60;0.60;;;;;;;;;;7329795;19;162425;-16
2021/10/27 02:02:15;;;;;;;0.70;0.70;;;;;;;;;;7329959;19;154465;-18
2021/10/27 02:04:48;;;;;;;0.65;0.65;;;;;;;;;;7329986;19;153516;-15
2021/10/27 02:07:22;;;;;;;0.88;0.88;;;;;;;;;;7329147;19;161947;-16
2021/10/27 02:09:54;;;;;;;0.65;0.65;;;;;;;;;;7329336;19;162423;-18
2021/10/27 02:12:26;;;;;;;1.27;0.80;;;;;;;;;;7328349;19;154353;-15
2021/10/27 02:14:59;;;;;;;0.63;0.63;;;;;;;;;;7329196;19;153649;-15
2021/10/27 02:17:32;;;;;;;0.65;0.65;;;;;;;;;;7326214;19;161946;-15
2021/10/27 02:20:04;;;;;;;0.40;0.40;;;;;;;;;;7328650;19;162697;-16
2021/10/27 02:22:38;;;;;;;0.68;0.68;;;;;;;;;;7329132;19;154112;-18
2021/10/27 02:25:11;;;;;;;0.60;0.60;;;;;;;;;;7328927;19;153450;-17
2021/10/27 02:27:43;;;;;;;0.60;0.60;;;;;;;;;;7330285;19;161843;-16
2021/10/27 02:30:15;;;;;;;0.50;0.50;;;;;;;;;;7334947;19;162744;-17
2021/10/27 02:32:48;;;;;;;0.60;0.57;;;;;;;;;;7334494;19;154006;-19
2021/10/27 02:35:19;;;;;;;0.57;0.50;;;;;;;;;;7335581;19;153776;-18
2021/10/27 02:37:54;;;;;;;0.50;0.50;;;;;;;;;;7333156;19;161863;-16
2021/10/27 02:40:26;;;;;;;0.60;0.60;;;;;;;;;;7335188;19;162474;-14
2021/10/27 02:42:57;;;;;;;0.55;0.55;;;;;;;;;;7335668;19;153964;-15
2021/10/27 02:45:28;;;;;;;1.20;0.70;;;;;;;;;;7335760;19;153435;-16
2021/10/27 02:48:00;;;;;;;0.68;0.68;;;;;;;;;;7335170;19;161857;-17
2021/10/27 02:50:33;;;;;;;0.50;0.50;;;;;;;;;;7334970;19;162483;-14
2021/10/27 02:53:10;;;;;;;0.60;0.60;;;;;;;;;;7335497;19;154054;-15
2021/10/27 02:55:41;;;;;;;0.50;0.50;;;;;;;;;;7332760;19;153750;-17
2021/10/27 02:58:13;;;;;;;0.60;0.60;;;;;;;;;;7332676;19;162099;-17
2021/10/27 03:00:45;;;;;;;0.50;0.50;;;;;;;;;;7333325;19;162698;-16
2021/10/27 03:03:17;;;;;;;0.50;0.50;;;;;;;;;;7334997;19;154324;-16
2021/10/27 03:05:49;;;;;;;0.60;0.60;;;;;;;;;;7334542;19;153282;-18
2021/10/27 03:08:23;;;;;;;0.40;0.40;;;;;;;;;;7334123;19;161857;-18
2021/10/27 03:10:55;;;;;;;0.50;0.50;;;;;;;;;;7333186;19;162451;-16
2021/10/27 03:13:30;;;;;;;0.50;0.50;;;;;;;;;;7334712;19;154033;-17
2021/10/27 03:16:01;;;;;;;0.63;0.63;;;;;;;;;;7333332;19;153956;-17
2021/10/27 03:18:33;;;;;;;0.50;0.50;;;;;;;;;;7331704;19;161793;-17
2021/10/27 03:21:04;;;;;;;0.52;0.52;;;;;;;;;;7334339;19;162406;-15
2021/10/27 03:23:38;;;;;;;0.50;0.50;;;;;;;;;;7337697;19;154374;-16
2021/10/27 03:26:10;;;;;;;0.50;0.50;;;;;;;;;;7337054;19;153485;-17
2021/10/27 03:28:41;;;;;;;0.55;0.55;;;;;;;;;;7337422;19;161917;-16
2021/10/27 03:31:14;;;;;;;0.50;0.47;;;;;;;;;;7337245;19;162320;-17
2021/10/27 03:33:45;;;;;;;0.53;0.53;;;;;;;;;;7337892;19;154052;-19
2021/10/27 03:36:16;;;;;;;0.50;0.50;;;;;;;;;;7336673;19;153466;-17
2021/10/27 03:38:51;;;;;;;0.60;0.60;;;;;;;;;;7333536;19;161853;-17
2021/10/27 03:41:24;;;;;;;0.43;0.43;;;;;;;;;;7337222;19;162443;-16
2021/10/27 03:43:55;;;;;;;0.57;0.57;;;;;;;;;;7336961;19;155397;-17
2021/10/27 03:46:27;;;;;;;0.52;0.52;;;;;;;;;;7336587;19;153864;-16
2021/10/27 03:48:59;;;;;;;0.40;0.40;;;;;;;;;;7335391;19;161848;-15
2021/10/27 03:51:30;;;;;;;0.43;0.43;;;;;;;;;;7335999;19;162286;-17
2021/10/27 03:54:05;;;;;;;0.50;0.50;;;;;;;;;;7336938;19;154002;-18
2021/10/27 03:56:37;;;;;;;0.60;0.60;;;;;;;;;;7334685;19;153619;-16
2021/10/27 03:59:09;;;;;;;0.40;0.40;;;;;;;;;;7336433;19;161813;-18
2021/10/27 04:01:41;;;;;;;0.60;0.60;;;;;;;;;;7336428;19;162369;-14
2021/10/27 04:04:12;;;;;;;0.43;0.43;;;;;;;;;;7336549;19;154297;-17
2021/10/27 04:06:43;;;;;;;0.50;0.50;;;;;;;;;;7336818;19;153680;-15
2021/10/27 04:09:17;;;;;;;0.57;0.57;;;;;;;;;;7335989;19;161972;-16
2021/10/27 04:11:49;;;;;;;0.50;0.50;;;;;;;;;;7334975;19;162741;-14
2021/10/27 04:14:21;;;;;;;0.50;0.50;;;;;;;;;;7335435;19;154015;-19
2021/10/27 04:16:55;;;;;;;0.50;0.50;;;;;;;;;;7335031;19;153580;-16
2021/10/27 04:19:26;;;;;;;0.50;0.50;;;;;;;;;;7335652;19;162046;-16
2021/10/27 04:21:58;;;;;;;0.47;0.47;;;;;;;;;;7335618;19;162512;-16
2021/10/27 04:24:32;;;;;;;0.50;0.50;;;;;;;;;;7335511;19;154690;-16
2021/10/27 04:27:03;;;;;;;0.50;0.50;;;;;;;;;;7336420;19;153507;-14
2021/10/27 04:29:34;;;;;;;0.50;0.50;;;;;;;;;;7335721;19;161766;-16
2021/10/27 04:32:07;;;;;;;0.63;0.50;;;;;;;;;;7334833;19;162306;-16
2021/10/27 04:34:38;;;;;;;0.40;0.40;;;;;;;;;;7335982;19;154000;-15
2021/10/27 04:37:10;;;;;;;0.50;0.50;;;;;;;;;;7335051;19;153513;-15
2021/10/27 04:39:45;;;;;;;0.40;0.40;;;;;;;;;;7335435;19;161849;-16
2021/10/27 04:42:17;;;;;;;0.50;0.50;;;;;;;;;;7335627;19;162386;-16
2021/10/27 04:44:48;;;;;;;0.60;0.60;;;;;;;;;;7334696;19;154052;-14
2021/10/27 04:47:19;;;;;;;0.60;0.60;;;;;;;;;;7335126;19;153503;-14
2021/10/27 04:49:51;;;;;;;0.43;0.43;;;;;;;;;;7333786;19;161773;-14
2021/10/27 04:52:22;;;;;;;0.40;0.40;;;;;;;;;;7334276;19;162389;-16
2021/10/27 04:54:56;;;;;;;0.50;0.50;;;;;;;;;;7334484;19;154050;-17
2021/10/27 04:57:31;;;;;;;0.43;0.43;;;;;;;;;;7334163;19;153599;-16
2021/10/27 05:00:03;;;;;;;0.50;0.50;;;;;;;;;;7334640;19;162041;-16
2021/10/27 05:02:34;;;;;;;0.47;0.47;;;;;;;;;;7334777;19;162359;-16
2021/10/27 05:05:06;;;;;;;0.50;0.50;;;;;;;;;;7334697;19;154071;-15
2021/10/27 05:07:41;;;;;;;0.60;0.60;;;;;;;;;;7334834;19;153691;-15
2021/10/27 05:10:15;;;;;;;0.38;0.38;;;;;;;;;;7334156;19;163295;-15
2021/10/27 05:12:49;;;;;;;0.43;0.43;;;;;;;;;;7333816;19;162446;-16
2021/10/27 05:15:21;;;;;;;0.50;0.50;;;;;;;;;;7334824;19;154332;-15
2021/10/27 05:17:52;;;;;;;0.40;0.40;;;;;;;;;;7333203;19;153711;-15
2021/10/27 05:20:24;;;;;;;0.50;0.50;;;;;;;;;;7335133;19;161918;-14
2021/10/27 05:22:55;;;;;;;0.52;0.52;;;;;;;;;;7330870;19;162501;-15
2021/10/27 05:25:30;;;;;;;0.60;0.60;;;;;;;;;;7331356;19;153967;-17
2021/10/27 05:28:01;;;;;;;0.40;0.40;;;;;;;;;;7330849;19;153833;-16
2021/10/27 05:30:33;;;;;;;0.40;0.40;;;;;;;;;;7330360;19;161776;-15
2021/10/27 05:33:05;;;;;;;0.55;0.55;;;;;;;;;;7330500;19;163226;-15
2021/10/27 05:35:36;;;;;;;0.40;0.40;;;;;;;;;;7330868;19;154039;-16
2021/10/27 05:38:08;;;;;;;0.47;0.47;;;;;;;;;;7330253;19;153988;-15
2021/10/27 05:40:42;;;;;;;0.40;0.40;;;;;;;;;;7330119;19;161835;-16
2021/10/27 05:43:15;;;;;;;0.50;0.50;;;;;;;;;;7329760;19;162502;-16
2021/10/27 05:45:52;;;;;;;0.40;0.40;;;;;;;;;;7329257;19;154330;-15
2021/10/27 05:48:28;;;;;;;0.50;0.50;;;;;;;;;;7330293;19;153532;-18
2021/10/27 05:51:12;;;;;;;0.40;0.40;;;;;;;;;;7329694;19;162066;-17
2021/10/27 05:56:30;;;;;;;0.40;0.40;;;;;;;;;;7327781;19;153850;-16
2021/10/27 05:59:02;;;;;;;0.32;0.32;;;;;;;;;;7328526;19;153494;-18
2021/10/27 06:01:34;;;;;;;0.50;0.50;;;;;;;;;;7330554;19;161993;-17
2021/10/27 06:04:08;;;;;;;0.50;0.50;;;;;;;;;;7335033;19;162454;-15
2021/10/27 06:06:40;;;;;;;0.43;0.43;;;;;;;;;;7336618;19;153954;-16
2021/10/27 06:09:11;;;;;;;0.40;0.40;;;;;;;;;;7336495;19;153545;-16
2021/10/27 06:11:46;;;;;;;0.30;0.30;;;;;;;;;;7336220;19;161795;-18
2021/10/27 06:14:18;;;;;;;0.43;0.43;;;;;;;;;;7336131;19;162340;-17
2021/10/27 06:16:51;;;;;;;0.50;0.50;;;;;;;;;;7336361;19;154122;-16
2021/10/27 06:19:23;;;;;;;0.40;0.40;;;;;;;;;;7335006;19;153545;-17
2021/10/27 06:21:55;;;;;;;0.50;0.50;;;;;;;;;;7335730;19;161516;-19
2021/10/27 06:24:26;;;;;;;0.50;0.50;;;;;;;;;;7335675;19;163175;-14
2021/10/27 06:27:01;;;;;;;0.40;0.40;;;;;;;;;;7336010;19;153936;-15
2021/10/27 06:29:35;;;;;;;0.50;0.50;;;;;;;;;;7335792;19;153912;-16
2021/10/27 06:32:15;;;;;;;0.45;0.45;;;;;;;;;;7335471;19;161858;-17
2021/10/27 06:34:49;;;;;;;0.57;0.57;;;;;;;;;;7335410;19;162110;-17
2021/10/27 06:48:24;;;;;;;0.40;0.40;;;;;;;;;;7334288;19;154021;-16
2021/10/27 06:51:11;;;;;;;0.40;0.40;;;;;;;;;;7335360;19;153775;-14
2021/10/27 06:53:43;;;;;;;0.40;0.40;;;;;;;;;;7335012;19;161787;-17
2021/10/27 06:56:16;;;;;;;0.40;0.40;;;;;;;;;;7332674;19;162397;-15
2021/10/27 06:58:53;;;;;;;;;;;;;;;;;;7335378;19;153982;-15
2021/10/27 07:01:28;;;;;;;0.50;0.50;;;;;;;;;;7334834;19;153476;-15
2021/10/27 07:15:17;;;;;;;0.50;0.50;;;;;;;;;;7333039;19;162762;-14
2021/10/27 07:17:54;;;;;;;0.60;0.60;;;;;;;;;;7333927;19;162592;-14
2021/10/27 07:20:27;;;;;;;0.50;0.47;;;;;;;;;;7332809;19;154002;-17
2021/10/27 07:23:00;;;;;;;0.50;0.50;;;;;;;;;;7334357;19;153763;-16
2021/10/27 07:25:33;;;;;;;0.40;0.40;;;;;;;;;;7333793;19;161793;-15
2021/10/27 07:28:05;;;;;;;0.60;0.60;;;;;;;;;;7333749;19;162646;-17
2021/10/27 07:30:39;;;;;;;0.73;0.55;;;;;;;;;;7334389;19;153936;-17
2021/10/27 07:33:10;;;;;;;0.50;0.50;;;;;;;;;;7334178;19;153869;-14
2021/10/27 07:35:45;;;;;;;0.60;0.60;;;;;;;;;;7333591;19;161813;-16
2021/10/27 07:41:03;;;;;;;0.40;0.40;;;;;;;;;;7331827;19;154022;-16
2021/10/27 07:43:35;;;;;;;0.70;0.70;;;;;;;;;;7333894;19;153654;-15
2021/10/27 07:46:09;;;;;;;0.90;0.60;;;;;;;;;;7333147;19;161862;-15
2021/10/27 07:48:40;;;;;;;0.43;0.43;;;;;;;;;;7333306;19;162398;-19
2021/10/27 07:51:12;;;;;;;0.50;0.50;;;;;;;;;;7333498;19;154021;-14
2021/10/27 07:53:44;;;;;;;0.65;0.60;;;;;;;;;;7333730;19;153511;-14
2021/10/27 07:56:15;;;;;;;0.60;0.60;;;;;;;;;;7331205;19;161805;-17
2021/10/27 07:58:49;;;;;;;0.50;0.50;;;;;;;;;;7332945;19;162407;-17
2021/10/27 08:01:22;;;;;;;0.60;0.60;;;;;;;;;;7331025;19;153942;-16
2021/10/27 08:03:54;;;;;;;0.60;0.60;;;;;;;;;;7333290;19;153533;-16
2021/10/27 08:06:25;;;;;;;0.60;0.60;;;;;;;;;;7334498;19;161876;-16
2021/10/27 08:08:58;;;;;;;0.68;0.60;;;;;;;;;;7331493;19;162337;-16
2021/10/27 08:11:29;;;;;;;0.50;0.50;;;;;;;;;;7333359;19;153996;-16
2021/10/27 08:14:01;;;;;;;0.65;0.57;;;;;;;;;;7335036;19;153444;-15
2021/10/27 08:16:35;;;;;;;0.50;0.50;;;;;;;;;;7336421;19;162278;-15
2021/10/27 08:19:06;;;;;;;0.50;0.50;;;;;;;;;;7332538;19;162148;-15
2021/10/27 08:21:38;;;;;;;0.40;0.40;;;;;;;;;;7330491;19;154195;-16
2021/10/27 08:24:12;;;;;;;0.50;0.50;;;;;;;;;;7332642;19;153673;-16
2021/10/27 08:26:50;;;;;;;0.52;0.52;;;;;;;;;;7329921;19;162064;-15
2021/10/27 08:29:26;;;;;;;0.50;0.50;;;;;;;;;;7332318;19;162679;-15
2021/10/27 08:32:09;;;;;;;0.77;0.50;;;;;;;;;;7332450;19;153960;-16
2021/10/27 08:34:46;;;;;;;0.50;0.50;;;;;;;;;;7332310;19;153768;-15
2021/10/27 08:37:18;;;;;;;0.40;0.40;;;;;;;;;;7330856;19;161830;-17
2021/10/27 08:39:50;;;;;;;0.47;0.47;;;;;;;;;;7330877;19;162519;-14
2021/10/27 08:42:27;;;;;;;0.40;0.40;;;;;;;;;;7332235;19;154136;-13
2021/10/27 08:44:58;;;;;;;0.40;0.40;;;;;;;;;;7333159;19;153574;-15
2021/10/27 08:47:33;;;;;;;0.40;0.40;;;;;;;;;;7331752;19;161860;-13
2021/10/27 08:50:05;;;;;;;0.40;0.40;;;;;;;;;;7331466;19;162521;-12
2021/10/27 08:52:36;;;;;;;0.50;0.50;;;;;;;;;;7331937;19;154241;-16
2021/10/27 08:55:10;;;;;;;0.50;0.50;;;;;;;;;;7328297;19;153551;-13
2021/10/27 08:57:44;;;;;;;0.40;0.40;;;;;;;;;;7335552;19;161768;-14
2021/10/27 09:00:20;;;;;;;1.17;0.50;;;;;;;;;;7330570;19;162357;-15
2021/10/27 09:03:14;;;;;;;2.50;0.70;;;;;;;;;;7330905;19;153967;-17
2021/10/27 09:05:58;;;;;;;0.60;0.60;;;;;;;;;;7327808;19;153568;-17
2021/10/27 09:33:35;;;;;;;0.80;0.57;;;;;;;;;;7330529;19;153852;-15
2021/10/27 09:34:33;;;;;;;0.60;0.60;;;;;;;;;;7329610;19;162533;-17
2021/10/27 10:05:31;;;;;;;0.45;0.45;;;;;;;;;;7328701;19;161872;-18
2021/10/27 10:08:03;;;;;;;0.43;0.43;;;;;;;;;;7327184;19;162436;-18
2021/10/27 10:10:37;;;;;;;1.90;0.77;;;;;;;;;;7326855;19;154445;-16
2021/10/27 10:13:09;;;;;;;0.95;0.50;;;;;;;;;;7328611;19;153549;-16
2021/10/27 10:15:40;;;;;;;0.57;0.55;;;;;;;;;;7328430;19;161732;-17
2021/10/27 10:18:12;;;;;;;0.57;0.57;;;;;;;;;;7328484;19;162244;-17
2021/10/27 10:20:47;;;;;;;0.60;0.60;;;;;;;;;;7328701;19;154175;-15
2021/10/27 10:23:23;;;;;;;1.40;0.60;;;;;;;;;;7328936;19;153726;-15
2021/10/27 10:26:01;;;;;;;1.17;0.60;;;;;;;;;;7329769;19;161794;-19
2021/10/27 10:28:40;;;;;;;0.93;0.68;;;;;;;;;;7327185;19;162547;-19
2021/10/27 10:31:31;;;;;;;0.47;0.47;;;;;;;;;;7327399;19;154006;-16
2021/10/27 10:34:05;;;;;;;1.85;0.60;;;;;;;;;;7329526;19;153601;-19
2021/10/27 10:36:41;;;;;;;0.50;0.50;;;;;;;;;;7326157;19;161819;-17
2021/10/27 10:39:42;;;;;;;0.60;0.60;;;;;;;;;;7327374;19;162557;-15
2021/10/27 10:42:52;;;;;;;0.47;0.47;;;;;;;;;;7326859;19;154385;-16
2021/10/27 10:45:35;;;;;;;0.70;0.60;;;;;;;;;;7327673;19;153593;-18
2021/10/27 10:57:14;;;;;;;0.40;0.40;;;;;;;;;;7331977;19;153513;-16
2021/10/27 11:23:47;;;;;;;2.80;0.70;;;;;;;;;;7335750;19;161958;-15
2021/10/27 11:37:43;;;;;;;1.48;0.98;;;;;;;;;;7336245;19;162826;-15
2021/10/27 11:40:33;;;;;;;1.85;0.90;;;;;;;;;;7334936;19;153976;-18
2021/10/27 11:43:17;;;;;;;1.77;0.80;;;;;;;;;;7332976;19;153510;-16
2021/10/27 11:45:58;;;;;;;1.00;1.00;;;;;;;;;;7335048;19;161825;-18
2021/10/27 11:48:44;;;;;;;1.20;0.75;;;;;;;;;;7335794;19;162353;-18
2021/10/27 11:51:17;;;;;;;0.70;0.70;;;;;;;;;;7333169;19;154001;-15
2021/10/27 11:53:51;;;;;;;;;;;;;;;;;;7332139;19;153540;-17
2021/10/27 11:56:25;;;;;;;5.65;1.13;;;;;;;;;;7334468;19;161952;-17
2021/10/27 11:58:57;;;;;;;1.38;1.00;;;;;;;;;;7333000;19;162286;-17
2021/10/27 12:01:30;;;;;;;1.40;0.90;;;;;;;;;;7332691;19;154162;-17
2021/10/27 12:04:02;;;;;;;0.73;0.73;;;;;;;;;;7330574;19;153558;-15
2021/10/27 12:06:47;;;;;;;1.40;1.30;;;;;;;;;;7332819;19;161871;-17
2021/10/27 12:09:40;;;;;;;2.25;1.40;;;;;;;;;;7336650;19;162482;-17
2021/10/27 12:12:19;;;;;;;0.80;0.80;;;;;;;;;;7336091;19;153935;-15
2021/10/27 12:18:02;;;;;;;1.20;1.10;;;;;;;;;;7332292;19;161940;-17
2021/10/27 12:20:39;;;;;;;1.83;0.93;;;;;;;;;;7332155;19;162274;-17
2021/10/27 12:23:23;;;;;;;1.20;1.08;;;;;;;;;;7330668;19;153953;-17
2021/10/27 12:26:11;;;;;;;1.50;1.35;;;;;;;;;;7331844;19;153522;-14
2021/10/27 12:28:42;;;;;;;1.10;1.00;;;;;;;;;;7331401;19;162047;-17
2021/10/27 12:31:19;;;;;;;2.43;1.20;;;;;;;;;;7331785;19;162491;-16
2021/10/27 12:33:51;;;;;;;1.30;1.10;;;;;;;;;;7331788;19;154425;-16
2021/10/27 12:36:28;;;;;;;1.20;1.10;;;;;;;;;;7332020;19;153514;-17
2021/10/27 12:39:12;;;;;;;1.20;1.10;;;;;;;;;;7331325;19;161993;-16
2021/10/27 12:41:49;;;;;;;1.45;1.33;;;;;;;;;;7330843;19;162438;-16
2021/10/27 12:44:24;;;;;;;1.50;1.30;;;;;;;;;;7333287;19;154066;-16
2021/10/27 12:47:11;;;;;;;1.35;1.10;;;;;;;;;;7331632;19;153665;-15
2021/10/27 12:49:44;;;;;;;1.10;1.10;;;;;;;;;;7331120;19;161788;-13
2021/10/27 12:52:29;;;;;;;2.83;1.13;;;;;;;;;;7330814;19;162491;-16
2021/10/27 12:55:18;;;;;;;1.10;1.00;;;;;;;;;;7329319;19;154075;-17
2021/10/27 12:57:59;;;;;;;1.52;1.10;;;;;;;;;;7332183;19;154028;-17
2021/10/27 13:00:49;;;;;;;1.50;1.00;;;;;;;;;;7328918;19;162175;-17
2021/10/27 13:06:22;;;;;;;0.93;0.93;;;;;;;;;;7330143;19;154015;-16
2021/10/27 13:14:41;;;;;;;1.58;1.30;;;;;;;;;;7330297;19;162497;-17
2021/10/27 13:22:53;;;;;;;19.08;11.90;;;;;;;;;;7331736;19;161986;-19
2021/10/27 13:31:11;;;;;;;7.30;5.90;;;;;;;;;;7330375;19;153603;-17
2021/10/27 13:33:42;;;;;;;8.93;6.63;;;;;;;;;;7330367;19;161917;-17
2021/10/27 13:36:16;;;;;;;13.27;10.18;;;;;;;;;;7329392;19;163053;-17
2021/10/27 13:38:47;;;;;;;8.55;6.55;;;;;;;;;;7332111;19;154241;-16
2021/10/27 13:41:20;;;;;;;7.13;5.47;;;;;;;;;;7330523;19;153506;-15
2021/10/27 13:43:55;;;;;;;6.15;5.03;;;;;;;;;;7328483;19;161801;-17
2021/10/27 13:49:42;;;;;;;4.15;3.75;;;;;;;;;;7330554;19;153747;-16
2021/10/27 13:58:04;;;;;;;4.82;3.80;;;;;;;;;;7333351;19;162162;-14
2021/10/27 14:06:15;;;;;;;3.92;3.55;;;;;;;;;;7329548;19;161959;-18
2021/10/27 14:08:53;;;;;;;5.28;3.30;;;;;;;;;;7329057;19;162338;-15
2021/10/27 14:11:29;;;;;;;3.10;2.80;;;;;;;;;;7329522;19;154127;-17
2021/10/27 14:14:08;;;;;;;3.47;2.70;;;;;;;;;;7331202;19;153620;-15
2021/10/27 14:17:09;;;;;;;2.80;2.60;;;;;;;;;;7331377;19;162043;-14
2021/10/27 15:20:45;;;;;;;1.00;1.00;;;;;;;;;;7337649;19;153567;-18
2021/10/27 15:23:22;;;;;;;1.27;0.90;;;;;;;;;;7337308;19;161824;-14
2021/10/27 15:27:38;;;;;;;0.77;0.77;;;;;;;;;;7333411;19;162379;-16
2021/10/27 15:29:10;;;;;;;0.90;0.90;;;;;;;;;;7337613;19;154099;-18
2021/10/27 15:31:56;;;;;;;0.93;0.80;;;;;;;;;;7337351;19;153652;-17
2021/10/27 15:40:32;;;;;;;0.80;0.80;;;;;;;;;;7337467;19;154026;-14
2021/10/27 15:51:20;;;;;;;0.70;0.70;;;;;;;;;;7335662;19;154246;-17
2021/10/27 15:53:55;;;;;;;0.70;0.70;;;;;;;;;;7337209;19;153690;-16
2021/10/27 15:56:27;;;;;;;0.75;0.75;;;;;;;;;;7334147;19;162213;-15
2021/10/27 15:59:01;;;;;;;1.10;0.60;;;;;;;;;;7336209;19;162563;-20
2021/10/27 16:01:32;;;;;;;0.57;0.57;;;;;;;;;;7337272;19;153784;-16
2021/10/27 16:04:04;;;;;;;0.60;0.60;;;;;;;;;;7336481;19;153558;-17
2021/10/27 16:06:40;;;;;;;0.60;0.60;;;;;;;;;;7335009;19;161922;-16
2021/10/27 16:09:12;;;;;;;0.70;0.70;;;;;;;;;;7334793;19;162502;-18
2021/10/27 16:11:43;;;;;;;0.60;0.60;;;;;;;;;;7337054;19;153994;-15
2021/10/27 16:14:21;;;;;;;0.75;0.68;;;;;;;;;;7332883;19;153460;-17
2021/10/27 16:16:52;;;;;;;0.70;0.70;;;;;;;;;;7332812;19;161822;-15
2021/10/27 16:19:26;;;;;;;0.70;0.70;;;;;;;;;;7332651;19;162506;-19
2021/10/27 16:22:10;;;;;;;0.63;0.55;;;;;;;;;;7333029;19;154122;-17
2021/10/27 16:24:43;;;;;;;0.65;0.65;;;;;;;;;;7330738;19;153763;-15
2021/10/27 16:27:14;;;;;;;0.80;0.80;;;;;;;;;;7330805;19;162529;-18
2021/10/27 16:29:49;;;;;;;0.63;0.63;;;;;;;;;;7329425;19;162492;-16
2021/10/27 16:32:21;;;;;;;0.70;0.70;;;;;;;;;;7332415;19;153944;-17
2021/10/27 16:34:52;;;;;;;1.00;0.88;;;;;;;;;;7332240;19;154861;-17
2021/10/27 16:37:26;;;;;;;0.70;0.70;;;;;;;;;;7332135;19;161835;-17
2021/10/27 16:39:57;;;;;;;0.73;0.73;;;;;;;;;;7331681;19;162712;-16
2021/10/27 16:42:31;;;;;;;0.60;0.60;;;;;;;;;;7332370;19;154193;-16
2021/10/27 16:45:06;;;;;;;0.90;0.90;;;;;;;;;;7331193;19;153542;-16
2021/10/27 16:47:39;;;;;;;0.77;0.77;;;;;;;;;;7329020;19;161900;-18
2021/10/27 16:50:13;;;;;;;0.77;0.77;;;;;;;;;;7331655;19;162239;-16
2021/10/27 16:52:46;;;;;;;0.70;0.70;;;;;;;;;;7332908;19;153937;-16
2021/10/27 16:55:21;;;;;;;0.90;0.90;;;;;;;;;;7331737;19;153510;-17
2021/10/27 16:57:55;;;;;;;0.73;0.73;;;;;;;;;;7332189;19;162345;-17
2021/10/27 17:00:32;;;;;;;0.80;0.80;;;;;;;;;;7331640;19;162318;-17
2021/10/27 17:03:03;;;;;;;0.80;0.80;;;;;;;;;;7331938;19;153981;-18
2021/10/27 17:05:35;;;;;;;0.63;0.63;;;;;;;;;;7330692;19;153678;-17
2021/10/27 17:08:16;;;;;;;0.77;0.73;;;;;;;;;;7331383;19;161805;-16
2021/10/27 17:10:47;;;;;;;0.70;0.70;;;;;;;;;;7331302;19;162439;-17
2021/10/27 17:13:20;;;;;;;0.70;0.70;;;;;;;;;;7331811;19;154154;-15
2021/10/27 17:15:54;;;;;;;0.70;0.70;;;;;;;;;;7331606;19;153683;-17
2021/10/27 17:18:29;;;;;;;0.80;0.80;;;;;;;;;;7331123;19;162017;-18
2021/10/27 17:21:04;;;;;;;0.70;0.70;;;;;;;;;;7329810;19;162556;-15
2021/10/27 17:23:36;;;;;;;0.80;0.80;;;;;;;;;;7331242;19;154280;-14
2021/10/27 17:26:08;;;;;;;;;;;;;;;;;;7330129;19;153531;-14
2021/10/27 17:28:39;;;;;;;0.82;0.82;;;;;;;;;;7330805;19;162091;-15
2021/10/27 17:31:13;;;;;;;0.80;0.80;;;;;;;;;;7330620;19;162452;-14
2021/10/27 17:33:45;;;;;;;0.60;0.60;;;;;;;;;;7331113;19;153762;-16
2021/10/27 17:36:17;;;;;;;0.80;0.80;;;;;;;;;;7330883;19;154122;-13
2021/10/27 17:38:48;;;;;;;0.60;0.60;;;;;;;;;;7330517;19;161856;-16
2021/10/27 17:41:20;;;;;;;0.70;0.70;;;;;;;;;;7329395;19;162591;-16
2021/10/27 17:43:53;;;;;;;1.10;1.00;;;;;;;;;;7330734;19;153925;-14
2021/10/27 17:46:39;;;;;;;0.68;0.68;;;;;;;;;;7328942;19;153473;-17
2021/10/27 17:49:14;;;;;;;0.80;0.80;;;;;;;;;;7330049;19;161965;-15
2021/10/27 17:51:58;;;;;;;1.10;0.60;;;;;;;;;;7328936;19;162614;-13
2021/10/27 18:00:20;;;;;;;0.70;0.70;;;;;;;;;;7328755;19;161947;-15
2021/10/27 18:02:54;;;;;;;0.80;0.80;;;;;;;;;;7329584;19;162350;-18
2021/10/27 18:05:26;;;;;;;0.80;0.80;;;;;;;;;;7329722;19;153984;-15
2021/10/27 18:07:58;;;;;;;0.70;0.70;;;;;;;;;;7328842;19;153518;-17
2021/10/27 18:10:30;;;;;;;0.93;0.93;;;;;;;;;;7329542;19;161785;-15
2021/10/27 18:13:02;;;;;;;1.02;1.02;;;;;;;;;;7329495;19;162527;-17
2021/10/27 18:15:38;;;;;;;0.80;0.80;;;;;;;;;;7330975;19;154016;-17
2021/10/27 18:18:18;;;;;;;1.00;1.00;;;;;;;;;;7332890;19;153693;-16
2021/10/27 18:20:49;;;;;;;1.23;1.13;;;;;;;;;;7328761;19;162089;-16
2021/10/27 18:23:38;;;;;;;1.05;0.90;;;;;;;;;;7328079;19;162367;-14
2021/10/27 18:37:24;;;;;;;3.45;1.75;;;;;;;;;;7328030;19;154618;-16
2021/10/27 18:40:04;;;;;;;10.13;7.38;;;;;;;;;;7326602;19;153616;-16
2021/10/27 18:42:39;;;;;;;2.78;2.25;;;;;;;;;;7330396;19;161818;-16
2021/10/27 18:45:13;;;;;;;2.00;1.80;;;;;;;;;;7330009;19;162547;-16
2021/10/27 18:47:45;;;;;;;3.30;2.30;;;;;;;;;;7329311;19;154150;-20
2021/10/27 18:50:20;;;;;;;2.28;2.08;;;;;;;;;;7330583;19;153621;-18
2021/10/27 18:53:06;;;;;;;2.17;1.80;;;;;;;;;;7328669;19;162143;-15
2021/10/27 18:55:56;;;;;;;2.42;2.22;;;;;;;;;;7328021;19;162647;-15
2021/10/27 18:58:32;;;;;;;1.90;1.80;;;;;;;;;;7330315;19;154123;-15
2021/10/27 19:01:08;;;;;;;1.80;1.70;;;;;;;;;;7329944;19;153583;-15
2021/10/27 19:10:26;;;;;;;2.22;2.05;;;;;;;;;;7329436;19;161803;-17
2021/10/27 19:12:22;;;;;;;2.10;2.00;;;;;;;;;;7336707;19;153611;-16
2021/10/27 19:15:16;;;;;;;2.03;1.70;;;;;;;;;;7334528;19;161540;-15
2021/10/27 19:17:47;;;;;;;;;;;;;;;;;;7336912;19;162401;-16
2021/10/27 19:20:18;;;;;;;1.70;1.60;;;;;;;;;;7336752;19;154221;-18
2021/10/27 19:22:52;;;;;;;1.60;1.50;;;;;;;;;;7337344;19;153857;-18
2021/10/27 19:25:29;;;;;;;1.55;1.45;;;;;;;;;;7336756;19;161786;-16
2021/10/27 19:28:08;;;;;;;1.65;1.55;;;;;;;;;;7334129;19;162377;-17
2021/10/27 19:30:54;;;;;;;1.50;1.40;;;;;;;;;;7335533;19;154076;-15
2021/10/27 20:06:59;;;;;;;2.00;1.90;;;;;;;;;;7332005;19;153563;-17